Météo Cheval Rigon

 

Relevés d'aujourd'hui



 

18/5/22
Time         Wind Dir   Wind Spd  Wind Gust   Humidity       Temp   Tot Rain Wind Chill  Dew Point   Barom SL Humidity R Temp Out R Tot Rain R   WindCh R   Dew Pt R SL Barom R Temp Out H Temp Out L  DailyRain   HourRain   24HrRain   RainRate  MonthRain
                          km/hr      km/hr          %         C         mm         C         C         mb       %/hr      C/hr      mm/hr      C/hr      C/hr      mm/hr         C         C         mm         mm         mm      mm/hr         mm
0:00              113          2          2         74       18.9     170.60       18.9       14.2    1017.99        3.9      -1.36      0.000      -1.36      -0.40      0.378       18.9       18.9       0.00       0.00       0.00      0.000      13.60
0:15              100          2          5         72       19.7     170.60       19.7       14.5    1017.92        1.2      -0.36      0.000      -0.36      -0.03      0.241       19.7       18.9       0.00       0.00       0.00      0.000      13.60
0:30              120          0          3         71       19.8     170.60       19.8       14.4    1017.99        0.1      -0.26      0.000      -0.26      -0.18      0.262       20.0       18.9       0.00       0.00       0.00      0.000      13.60
0:45              153          0          3         72       19.4     170.60       19.4       14.3    1017.99        1.0      -0.50      0.000      -0.50      -0.24      0.211       20.0       18.9       0.00       0.00       0.00      0.000      13.60
1:00              114          0          2         72       19.3     170.60       19.3       14.2    1017.89        0.6      -0.47      0.000      -0.47      -0.30      0.075       20.0       18.9       0.00       0.00       0.00      0.000      13.60
1:15              100          0          3         71       19.8     170.60       19.8       14.4    1017.92       -0.4       0.03      0.000       0.03      -0.04      0.090       20.0       18.9       0.00       0.00       0.00      0.000      13.60
1:30               99          2          3         70       19.8     170.60       19.8       14.2    1017.99       -1.1       0.07      0.000       0.07      -0.17      0.134       20.0       18.9       0.00       0.00       0.00      0.000      13.60
1:45              150          0          5         71       19.6     170.60       19.6       14.2    1017.99        0.1      -0.22      0.000      -0.22      -0.18      0.113       20.0       18.9       0.00       0.00       0.00      0.000      13.60
2:00              150          2          2         73       18.7     170.60       18.7       13.7    1018.13        1.8      -0.94      0.000      -0.94      -0.51      0.208       20.0       18.7       0.00       0.00       0.00      0.000      13.60
2:15              269          3          6         74       18.4     170.60       18.4       13.7    1018.91        2.3      -0.93      0.000      -0.93      -0.39      0.918       20.0       18.4       0.00       0.00       0.00      0.000      13.60
2:30              234          2          6         77       17.7     170.60       17.7       13.6    1018.87        4.4      -1.38      0.000      -1.38      -0.41      0.705       20.0       17.7       0.00       0.00       0.00      0.000      13.60
2:45              199          2          5         77       18.0     170.60       18.0       13.9    1019.04        3.2      -0.77      0.000      -0.77      -0.06      0.706       20.0       17.7       0.00       0.00       0.00      0.000      13.60
3:00              200          0          2         77       17.8     170.60       17.8       13.8    1019.04        2.5      -0.76      0.000      -0.76      -0.20      0.560       20.0       17.7       0.00       0.00       0.00      0.000      13.60
3:15              200          0          2         78       17.6     170.60       17.6       13.7    1019.07        2.8      -0.78      0.000      -0.78      -0.19      0.469       20.0       17.6       0.00       0.00       0.00      0.000      13.60
3:30               27          0          3         79       17.3     170.60       17.3       13.6    1019.18        3.0      -0.91      0.000      -0.91      -0.27      0.452       20.0       17.3       0.00       0.00       0.00      0.000      13.60
3:45               28          0          2         81       17.0     170.60       17.0       13.7    1019.28        4.1      -0.96      0.000      -0.96      -0.11      0.447       20.0       17.0       0.00       0.00       0.00      0.000      13.60
4:00               28          0          2         82       16.7     170.60       16.7       13.6    1019.28        4.1      -0.99      0.000      -0.99      -0.15      0.349       20.0       16.7       0.00       0.00       0.00      0.000      13.60
4:15               28          0          0         83       16.4     170.60       16.4       13.5    1019.31        4.1      -1.08      0.000      -1.08      -0.26      0.301       20.0       16.4       0.00       0.00       0.00      0.000      13.60
4:30               28          0          0         84       16.0     170.60       16.0       13.3    1019.24        4.0      -1.19      0.000      -1.19      -0.39      0.181       20.0       16.0       0.00       0.00       0.00      0.000      13.60
4:45               28          0          0         86       15.8     170.60       15.8       13.4    1019.28        4.8      -1.12      0.000      -1.12      -0.18      0.167       20.0       15.8       0.00       0.00       0.00      0.000      13.60
5:00               28          0          0         86       15.7     170.60       15.7       13.3    1019.35        3.8      -0.97      0.000      -0.97      -0.24      0.187       20.0       15.7       0.00       0.00       0.00      0.000      13.60

 


 

 

 

Retour accueil